Time;durP1;ratioP1;P1;durP2;ratioP2;P2;SDS_P1;SDS_P2;PMS_P1;PMS_P2;Temp;Humidity;BMP_temperature;BMP_pressure;BME280_temperature;BME280_humidity;BME280_pressure;Samples;Min_cycle;Max_cycle;Signal;HPM_P1;HPM_P2
2023/05/29 00:00:28;;;;;;;15.27;6.13;;;;;;;;;;4969266;28;20031;-63
2023/05/29 00:02:54;;;;;;;10.38;5.18;;;;;;;;;;4963870;28;20373;-65
2023/05/29 00:05:19;;;;;;;13.68;5.50;;;;;;;;;;4988405;28;20428;-63
2023/05/29 00:07:44;;;;;;;12.50;5.97;;;;;;;;;;4990782;28;20021;-64
2023/05/29 00:10:10;;;;;;;10.50;5.03;;;;;;;;;;4990751;28;20030;-65
2023/05/29 00:12:36;;;;;;;12.00;5.10;;;;;;;;;;4979587;28;20027;-61
2023/05/29 00:15:03;;;;;;;12.65;5.38;;;;;;;;;;4956962;28;20027;-64
2023/05/29 00:17:29;;;;;;;13.05;5.97;;;;;;;;;;4968834;28;20045;-63
2023/05/29 00:19:54;;;;;;;15.82;5.90;;;;;;;;;;4970865;28;20475;-65
2023/05/29 00:22:20;;;;;;;13.40;5.15;;;;;;;;;;4972040;28;20112;-65
2023/05/29 00:24:47;;;;;;;9.20;4.80;;;;;;;;;;4983515;28;20015;-64
2023/05/29 00:27:13;;;;;;;9.23;4.73;;;;;;;;;;4982065;28;20160;-63
2023/05/29 00:29:38;;;;;;;9.05;4.50;;;;;;;;;;4982679;28;20105;-61
2023/05/29 00:32:04;;;;;;;11.30;4.90;;;;;;;;;;4979328;28;20022;-64
2023/05/29 00:34:30;;;;;;;10.80;4.65;;;;;;;;;;4963640;28;20026;-64
2023/05/29 00:36:55;;;;;;;12.93;4.20;;;;;;;;;;4971417;28;20512;-64
2023/05/29 00:39:21;;;;;;;15.23;5.40;;;;;;;;;;4961970;28;20463;-64
2023/05/29 00:41:50;;;;;;;16.73;4.70;;;;;;;;;;4981388;28;20019;-66
2023/05/29 00:44:15;;;;;;;9.73;4.38;;;;;;;;;;4988261;28;20025;-61
2023/05/29 00:46:41;;;;;;;10.68;4.13;;;;;;;;;;4978914;28;20015;-64
2023/05/29 00:49:06;;;;;;;9.95;4.13;;;;;;;;;;4974310;28;20141;-64
2023/05/29 00:51:32;;;;;;;10.90;4.28;;;;;;;;;;4987900;28;20022;-66
2023/05/29 00:53:58;;;;;;;12.88;3.80;;;;;;;;;;4971018;28;20022;-65
2023/05/29 00:56:23;;;;;;;9.65;3.88;;;;;;;;;;4982514;28;20022;-65
2023/05/29 00:58:49;;;;;;;9.63;3.40;;;;;;;;;;4989228;28;20506;-64
2023/05/29 01:01:15;;;;;;;8.00;3.55;;;;;;;;;;4979158;28;20115;-63
2023/05/29 01:03:41;;;;;;;7.30;3.20;;;;;;;;;;4973811;28;20022;-64
2023/05/29 01:06:07;;;;;;;11.45;3.67;;;;;;;;;;4978428;28;20071;-64
2023/05/29 01:08:32;;;;;;;9.05;3.60;;;;;;;;;;4974954;28;20150;-65
2023/05/29 01:11:04;;;;;;;10.68;3.78;;;;;;;;;;4980415;28;20034;-63
2023/05/29 01:13:31;;;;;;;11.98;3.95;;;;;;;;;;4973725;28;20097;-63
2023/05/29 01:15:56;;;;;;;9.68;3.08;;;;;;;;;;4974338;28;20023;-64
2023/05/29 01:18:21;;;;;;;9.30;3.42;;;;;;;;;;4979972;28;20030;-65
2023/05/29 01:21:00;;;;;;;12.03;3.60;;;;;;;;;;4982465;28;20531;-65
2023/05/29 01:23:47;;;;;;;9.90;4.18;;;;;;;;;;4993298;28;20252;-65
2023/05/29 01:26:40;;;;;;;10.02;3.50;;;;;;;;;;4980576;28;20019;-62
2023/05/29 01:29:06;;;;;;;7.80;3.35;;;;;;;;;;4983966;28;20045;-65
2023/05/29 01:31:32;;;;;;;8.20;3.55;;;;;;;;;;4993812;28;20158;-65
2023/05/29 01:34:00;;;;;;;11.77;3.60;;;;;;;;;;4976050;28;20107;-65
2023/05/29 01:36:26;;;;;;;8.15;3.05;;;;;;;;;;4985192;28;20033;-65
2023/05/29 01:38:52;;;;;;;9.80;3.72;;;;;;;;;;4972466;28;20046;-64
2023/05/29 01:41:18;;;;;;;7.50;3.33;;;;;;;;;;4986603;28;20539;-65
2023/05/29 01:43:44;;;;;;;8.18;3.30;;;;;;;;;;4987866;28;20054;-62
2023/05/29 01:46:10;;;;;;;11.65;3.58;;;;;;;;;;4993307;28;20081;-65
2023/05/29 01:48:36;;;;;;;13.93;3.75;;;;;;;;;;4993493;28;20018;-61
2023/05/29 01:51:01;;;;;;;12.68;3.83;;;;;;;;;;4986093;28;20531;-64
2023/05/29 01:53:26;;;;;;;8.63;3.50;;;;;;;;;;4987717;28;20036;-62
2023/05/29 01:55:52;;;;;;;9.57;2.83;;;;;;;;;;4993003;28;20045;-63
2023/05/29 01:58:18;;;;;;;6.82;3.55;;;;;;;;;;4989368;28;20620;-64
2023/05/29 02:00:43;;;;;;;9.05;2.80;;;;;;;;;;4973787;28;20045;-61
2023/05/29 02:03:08;;;;;;;8.75;3.15;;;;;;;;;;4973982;28;20624;-65
2023/05/29 02:05:34;;;;;;;8.38;3.67;;;;;;;;;;4971531;28;20019;-63
2023/05/29 02:07:59;;;;;;;5.80;3.05;;;;;;;;;;4974099;28;20027;-65
2023/05/29 02:10:24;;;;;;;7.60;3.40;;;;;;;;;;4992686;28;20026;-64
2023/05/29 02:12:50;;;;;;;6.72;3.15;;;;;;;;;;4981952;28;20031;-65
2023/05/29 02:15:15;;;;;;;10.93;3.63;;;;;;;;;;4957757;28;20023;-63
2023/05/29 02:17:41;;;;;;;7.53;3.20;;;;;;;;;;4985179;28;20104;-64
2023/05/29 02:20:07;;;;;;;8.35;3.20;;;;;;;;;;4979361;28;20034;-63
2023/05/29 02:22:32;;;;;;;9.68;3.30;;;;;;;;;;4992044;28;20022;-63
2023/05/29 02:24:57;;;;;;;7.20;3.42;;;;;;;;;;4970554;28;20026;-65
2023/05/29 02:27:22;;;;;;;10.68;3.45;;;;;;;;;;4985542;28;20499;-62
2023/05/29 02:29:48;;;;;;;15.38;3.95;;;;;;;;;;4983610;28;20024;-65
2023/05/29 02:32:13;;;;;;;9.40;3.08;;;;;;;;;;4992489;28;20027;-64
2023/05/29 02:34:38;;;;;;;8.55;3.70;;;;;;;;;;4963010;28;20033;-65
2023/05/29 02:37:03;;;;;;;7.93;3.25;;;;;;;;;;4992110;28;20102;-64
2023/05/29 02:39:29;;;;;;;8.48;3.70;;;;;;;;;;4970825;28;20032;-65
2023/05/29 02:41:54;;;;;;;9.90;4.00;;;;;;;;;;4992894;28;20014;-64
2023/05/29 02:44:20;;;;;;;11.27;3.45;;;;;;;;;;4990670;28;20061;-66
2023/05/29 02:46:45;;;;;;;12.55;3.47;;;;;;;;;;4992685;28;20022;-65
2023/05/29 02:49:10;;;;;;;9.30;3.53;;;;;;;;;;4973148;28;20027;-65
2023/05/29 02:51:37;;;;;;;13.15;3.35;;;;;;;;;;4971386;28;20037;-65
2023/05/29 02:54:02;;;;;;;14.23;4.03;;;;;;;;;;4976463;28;20022;-66
2023/05/29 02:56:28;;;;;;;7.60;3.83;;;;;;;;;;4992015;28;20034;-65
2023/05/29 02:58:53;;;;;;;7.35;3.35;;;;;;;;;;4989566;28;20026;-65
2023/05/29 03:01:18;;;;;;;9.40;3.67;;;;;;;;;;4992493;28;20170;-65
2023/05/29 03:03:43;;;;;;;7.88;3.88;;;;;;;;;;4978354;28;20045;-63
2023/05/29 03:06:09;;;;;;;9.60;3.50;;;;;;;;;;4980832;28;20408;-63
2023/05/29 03:08:35;;;;;;;7.72;3.60;;;;;;;;;;4973501;28;20519;-64
2023/05/29 03:11:00;;;;;;;7.18;3.60;;;;;;;;;;4983860;28;20054;-61
2023/05/29 03:13:25;;;;;;;9.40;4.00;;;;;;;;;;4976238;28;20026;-65
2023/05/29 03:15:51;;;;;;;8.43;3.60;;;;;;;;;;4970326;28;20015;-62
2023/05/29 03:18:16;;;;;;;8.35;3.42;;;;;;;;;;4986403;28;20027;-64
2023/05/29 03:20:41;;;;;;;12.82;3.60;;;;;;;;;;4982259;28;20027;-63
2023/05/29 03:23:06;;;;;;;7.53;3.53;;;;;;;;;;4990611;28;20034;-64
2023/05/29 03:25:31;;;;;;;9.10;4.10;;;;;;;;;;4989769;28;20018;-59
2023/05/29 03:27:57;;;;;;;8.13;3.50;;;;;;;;;;4991744;28;20111;-65
2023/05/29 03:30:22;;;;;;;9.23;3.67;;;;;;;;;;4982188;28;20026;-64
2023/05/29 03:32:47;;;;;;;11.70;4.10;;;;;;;;;;4985674;28;20018;-65
2023/05/29 03:35:12;;;;;;;12.93;4.47;;;;;;;;;;4966744;28;20318;-67
2023/05/29 03:37:37;;;;;;;7.50;3.85;;;;;;;;;;4989073;28;20029;-66
2023/05/29 03:40:04;;;;;;;9.50;4.10;;;;;;;;;;4974262;28;20621;-67
2023/05/29 03:42:30;;;;;;;11.88;4.13;;;;;;;;;;4991662;28;20019;-64
2023/05/29 03:44:56;;;;;;;9.55;4.22;;;;;;;;;;4979498;28;20027;-65
2023/05/29 03:47:21;;;;;;;11.43;3.55;;;;;;;;;;4972225;28;20026;-63
2023/05/29 03:49:46;;;;;;;10.82;3.63;;;;;;;;;;4981968;28;20033;-66
2023/05/29 03:52:12;;;;;;;9.88;3.83;;;;;;;;;;4977557;28;20101;-67
2023/05/29 03:54:37;;;;;;;9.82;4.22;;;;;;;;;;4989977;28;20169;-65
2023/05/29 03:57:02;;;;;;;8.13;3.72;;;;;;;;;;4991589;28;20161;-65
2023/05/29 03:59:27;;;;;;;9.20;3.83;;;;;;;;;;4990542;28;20038;-66
2023/05/29 04:01:52;;;;;;;11.50;4.30;;;;;;;;;;4990957;28;20020;-66
2023/05/29 04:04:18;;;;;;;11.43;3.55;;;;;;;;;;4989703;28;20025;-63
2023/05/29 04:06:43;;;;;;;10.45;3.88;;;;;;;;;;4991092;28;20027;-67
2023/05/29 04:09:08;;;;;;;8.55;4.00;;;;;;;;;;4990665;28;20110;-65
2023/05/29 04:11:34;;;;;;;9.82;3.35;;;;;;;;;;5005282;23;20261;-69
2023/05/29 04:13:59;;;;;;;6.95;3.47;;;;;;;;;;4979952;28;20174;-69
2023/05/29 04:16:25;;;;;;;11.15;3.88;;;;;;;;;;4991339;28;20034;-66
2023/05/29 04:18:50;;;;;;;6.55;3.58;;;;;;;;;;4998304;28;20133;-70
2023/05/29 04:21:16;;;;;;;14.00;3.72;;;;;;;;;;4987757;28;20180;-71
2023/05/29 04:23:42;;;;;;;10.98;4.53;;;;;;;;;;4985962;28;20366;-72
2023/05/29 04:26:07;;;;;;;12.45;3.83;;;;;;;;;;4986255;28;20479;-67
2023/05/29 04:28:32;;;;;;;13.63;4.55;;;;;;;;;;4987740;28;20122;-68
2023/05/29 04:30:58;;;;;;;11.35;4.15;;;;;;;;;;4987174;28;20022;-65
2023/05/29 04:33:23;;;;;;;8.88;4.25;;;;;;;;;;4985980;28;20026;-67
2023/05/29 04:35:49;;;;;;;11.18;4.60;;;;;;;;;;4985775;28;20196;-66
2023/05/29 04:38:14;;;;;;;12.90;4.10;;;;;;;;;;4983650;28;20023;-68
2023/05/29 04:40:40;;;;;;;12.13;4.82;;;;;;;;;;4982080;28;20105;-67
2023/05/29 04:43:05;;;;;;;8.60;3.80;;;;;;;;;;4982361;28;20038;-70
2023/05/29 04:45:30;;;;;;;11.88;3.88;;;;;;;;;;4985172;28;20069;-72
2023/05/29 04:47:56;;;;;;;11.98;4.03;;;;;;;;;;4986952;28;20046;-68
2023/05/29 04:50:22;;;;;;;6.00;3.35;;;;;;;;;;4986008;28;20026;-70
2023/05/29 04:52:48;;;;;;;13.57;4.53;;;;;;;;;;4986074;28;20034;-70
2023/05/29 04:55:13;;;;;;;9.77;4.10;;;;;;;;;;4985258;28;20026;-71
2023/05/29 04:57:38;;;;;;;10.93;4.32;;;;;;;;;;4986877;28;20030;-70
2023/05/29 05:00:09;;;;;;;12.25;4.32;;;;;;;;;;4987610;28;20030;-70
2023/05/29 05:02:34;;;;;;;10.68;4.43;;;;;;;;;;4979890;28;20219;-70
2023/05/29 05:04:59;;;;;;;8.15;3.95;;;;;;;;;;4983261;28;20148;-69
2023/05/29 05:07:25;;;;;;;10.85;4.55;;;;;;;;;;4984111;28;20432;-69
2023/05/29 05:09:50;;;;;;;13.60;4.05;;;;;;;;;;4986429;28;20424;-68
2023/05/29 05:12:16;;;;;;;10.70;4.00;;;;;;;;;;4983208;28;20023;-70
2023/05/29 05:14:41;;;;;;;17.58;4.32;;;;;;;;;;4975901;28;20033;-73
2023/05/29 05:17:06;;;;;;;11.82;4.38;;;;;;;;;;4986656;28;20033;-65
2023/05/29 05:19:31;;;;;;;10.43;4.18;;;;;;;;;;4978878;28;20053;-67
2023/05/29 05:21:56;;;;;;;12.07;4.32;;;;;;;;;;4976188;28;20026;-69
2023/05/29 05:24:22;;;;;;;12.32;4.28;;;;;;;;;;4985811;28;20026;-69
2023/05/29 05:26:48;;;;;;;11.57;4.07;;;;;;;;;;4976634;28;20045;-69
2023/05/29 05:29:13;;;;;;;20.63;4.90;;;;;;;;;;4983775;28;20019;-70
2023/05/29 05:31:38;;;;;;;9.45;3.92;;;;;;;;;;4974801;28;20018;-69
2023/05/29 05:34:03;;;;;;;12.15;5.32;;;;;;;;;;4979442;28;20113;-70
2023/05/29 05:36:29;;;;;;;8.82;3.90;;;;;;;;;;4980966;28;20023;-70
2023/05/29 05:38:54;;;;;;;13.07;5.10;;;;;;;;;;4983782;28;20397;-70
2023/05/29 05:41:21;;;;;;;11.98;4.70;;;;;;;;;;4982183;28;20069;-69
2023/05/29 05:43:46;;;;;;;14.35;4.53;;;;;;;;;;4985854;28;20036;-70
2023/05/29 05:46:12;;;;;;;9.25;4.47;;;;;;;;;;4987017;28;20022;-70
2023/05/29 05:48:37;;;;;;;12.52;4.50;;;;;;;;;;4987666;28;20122;-69
2023/05/29 05:51:02;;;;;;;11.55;3.97;;;;;;;;;;4984053;28;20061;-73
2023/05/29 05:53:28;;;;;;;13.73;3.90;;;;;;;;;;4985762;28;20476;-68
2023/05/29 05:55:54;;;;;;;13.93;4.80;;;;;;;;;;4979095;28;20022;-70
2023/05/29 05:58:19;;;;;;;12.40;4.15;;;;;;;;;;4988684;28;20034;-70
2023/05/29 06:00:44;;;;;;;15.82;4.80;;;;;;;;;;4987919;28;20422;-67
2023/05/29 06:03:10;;;;;;;12.73;4.30;;;;;;;;;;4989103;28;20103;-67
2023/05/29 06:05:37;;;;;;;11.18;4.50;;;;;;;;;;4987356;28;20053;-68
2023/05/29 06:08:02;;;;;;;13.65;4.22;;;;;;;;;;4990041;28;20029;-69
2023/05/29 06:10:28;;;;;;;11.20;4.32;;;;;;;;;;4988075;28;20027;-69
2023/05/29 06:12:53;;;;;;;14.63;4.45;;;;;;;;;;4986807;28;20499;-70
2023/05/29 06:15:18;;;;;;;16.70;4.72;;;;;;;;;;4987331;28;20029;-70
2023/05/29 06:17:44;;;;;;;19.33;4.55;;;;;;;;;;4990193;28;20019;-67
2023/05/29 06:20:10;;;;;;;11.27;4.25;;;;;;;;;;4988581;28;20054;-69
2023/05/29 06:22:36;;;;;;;16.70;5.00;;;;;;;;;;4989690;28;20113;-68
2023/05/29 06:25:01;;;;;;;16.75;4.07;;;;;;;;;;4989558;28;20118;-68
2023/05/29 06:27:26;;;;;;;19.73;7.03;;;;;;;;;;4988703;28;20040;-66
2023/05/29 06:29:52;;;;;;;13.50;4.45;;;;;;;;;;4986644;28;20026;-66
2023/05/29 06:32:17;;;;;;;14.25;4.82;;;;;;;;;;4988886;28;20080;-66
2023/05/29 06:34:42;;;;;;;14.13;4.60;;;;;;;;;;4984024;28;20042;-70
2023/05/29 06:37:08;;;;;;;11.77;4.07;;;;;;;;;;4988012;28;20034;-70
2023/05/29 06:39:34;;;;;;;16.05;4.65;;;;;;;;;;4981574;28;20113;-67
2023/05/29 06:42:01;;;;;;;16.77;4.88;;;;;;;;;;4984573;28;20114;-69
2023/05/29 06:44:26;;;;;;;12.82;4.32;;;;;;;;;;4982784;28;20479;-70
2023/05/29 06:46:51;;;;;;;9.63;3.83;;;;;;;;;;4988415;28;20022;-67
2023/05/29 06:49:16;;;;;;;10.80;4.15;;;;;;;;;;4986706;28;20037;-67
2023/05/29 06:51:42;;;;;;;9.35;4.20;;;;;;;;;;4984032;28;20014;-68
2023/05/29 06:54:07;;;;;;;14.50;4.97;;;;;;;;;;4979714;28;20204;-68
2023/05/29 06:56:32;;;;;;;12.52;4.47;;;;;;;;;;4989699;28;20038;-68
2023/05/29 06:58:57;;;;;;;16.17;4.13;;;;;;;;;;4987533;28;20015;-70
2023/05/29 07:01:23;;;;;;;12.95;4.22;;;;;;;;;;4985347;28;20027;-65
2023/05/29 07:03:51;;;;;;;19.30;5.07;;;;;;;;;;4988013;28;20018;-69
2023/05/29 07:06:17;;;;;;;9.27;4.28;;;;;;;;;;4989721;28;20057;-68
2023/05/29 07:08:42;;;;;;;12.63;4.03;;;;;;;;;;4989243;28;20519;-70
2023/05/29 07:11:07;;;;;;;13.27;5.03;;;;;;;;;;4989429;28;20022;-69
2023/05/29 07:13:32;;;;;;;16.52;5.05;;;;;;;;;;4987771;28;20052;-67
2023/05/29 07:15:57;;;;;;;10.82;4.07;;;;;;;;;;4987953;28;20018;-67
2023/05/29 07:18:23;;;;;;;16.85;4.90;;;;;;;;;;4979203;28;20136;-67
2023/05/29 07:20:48;;;;;;;14.82;4.60;;;;;;;;;;4986029;28;20030;-68
2023/05/29 07:23:13;;;;;;;10.48;4.60;;;;;;;;;;4985888;28;20431;-69
2023/05/29 07:25:38;;;;;;;12.82;4.65;;;;;;;;;;4986675;28;20030;-68
2023/05/29 07:28:03;;;;;;;12.98;4.28;;;;;;;;;;4984224;28;20043;-68
2023/05/29 07:30:29;;;;;;;11.88;3.83;;;;;;;;;;4988036;28;20026;-70
2023/05/29 07:32:54;;;;;;;13.35;4.13;;;;;;;;;;4989209;28;20072;-69
2023/05/29 07:35:20;;;;;;;11.85;3.55;;;;;;;;;;4987511;28;20018;-71
2023/05/29 07:37:47;;;;;;;14.57;4.30;;;;;;;;;;4986650;28;20124;-72
2023/05/29 07:40:13;;;;;;;13.63;3.65;;;;;;;;;;4983097;28;20294;-66
2023/05/29 07:42:38;;;;;;;16.65;4.28;;;;;;;;;;4988170;28;20082;-69
2023/05/29 07:45:03;;;;;;;12.20;3.70;;;;;;;;;;4985632;28;20010;-68
2023/05/29 07:47:29;;;;;;;9.23;3.50;;;;;;;;;;4986740;28;20463;-69
2023/05/29 07:49:54;;;;;;;8.85;3.60;;;;;;;;;;4989052;28;20571;-67
2023/05/29 07:52:19;;;;;;;11.40;4.10;;;;;;;;;;4988812;28;20026;-69
2023/05/29 07:54:45;;;;;;;9.75;3.38;;;;;;;;;;4988283;28;20452;-68
2023/05/29 07:57:10;;;;;;;13.65;3.35;;;;;;;;;;4997568;28;20033;-70
2023/05/29 07:59:36;;;;;;;11.85;3.90;;;;;;;;;;4991465;28;20096;-70
2023/05/29 08:02:02;;;;;;;11.38;3.85;;;;;;;;;;4984817;28;20038;-69
2023/05/29 08:04:28;;;;;;;8.93;3.60;;;;;;;;;;4981455;28;20010;-70
2023/05/29 08:06:53;;;;;;;9.85;4.15;;;;;;;;;;4981543;28;20042;-71
2023/05/29 08:09:18;;;;;;;10.45;3.35;;;;;;;;;;4981486;28;20057;-69
2023/05/29 08:11:46;;;;;;;9.20;3.40;;;;;;;;;;4985044;28;20042;-66
2023/05/29 08:14:11;;;;;;;9.88;3.50;;;;;;;;;;4981091;28;20022;-68
2023/05/29 08:16:36;;;;;;;12.13;3.13;;;;;;;;;;4986388;28;20061;-69
2023/05/29 08:19:02;;;;;;;10.48;3.20;;;;;;;;;;4986898;28;20006;-69
2023/05/29 08:21:27;;;;;;;9.82;3.45;;;;;;;;;;4985636;28;20061;-68
2023/05/29 08:23:52;;;;;;;10.07;2.83;;;;;;;;;;4984897;28;20173;-67
2023/05/29 08:26:18;;;;;;;17.45;3.97;;;;;;;;;;4987913;28;20022;-67
2023/05/29 08:28:43;;;;;;;14.65;3.42;;;;;;;;;;4987940;28;20637;-67
2023/05/29 08:31:08;;;;;;;10.68;3.00;;;;;;;;;;4986487;28;20030;-69
2023/05/29 08:33:36;;;;;;;8.88;2.70;;;;;;;;;;4985672;28;20026;-69
2023/05/29 08:36:01;;;;;;;16.75;3.63;;;;;;;;;;4986386;28;20026;-68
2023/05/29 08:38:27;;;;;;;12.70;2.90;;;;;;;;;;4981455;28;20043;-69
2023/05/29 08:40:52;;;;;;;12.13;3.05;;;;;;;;;;4982302;28;20033;-69
2023/05/29 08:43:20;;;;;;;10.40;2.70;;;;;;;;;;4986611;28;20356;-71
2023/05/29 08:45:47;;;;;;;9.60;2.97;;;;;;;;;;4986473;28;20572;-70
2023/05/29 08:48:13;;;;;;;11.10;3.03;;;;;;;;;;4986347;28;20032;-69
2023/05/29 08:50:44;;;;;;;16.40;3.33;;;;;;;;;;4986487;28;20032;-68
2023/05/29 08:53:09;;;;;;;6.97;2.72;;;;;;;;;;4987886;28;20105;-70
2023/05/29 08:55:34;;;;;;;10.93;2.63;;;;;;;;;;4987991;28;20053;-70
2023/05/29 08:58:01;;;;;;;8.68;2.88;;;;;;;;;;4986294;28;20375;-66
2023/05/29 09:00:28;;;;;;;7.95;2.83;;;;;;;;;;4987565;28;20019;-71
2023/05/29 09:02:55;;;;;;;14.52;2.88;;;;;;;;;;4987584;28;20057;-69
2023/05/29 09:05:21;;;;;;;9.00;2.78;;;;;;;;;;4985675;28;20029;-68
2023/05/29 09:07:46;;;;;;;9.05;2.40;;;;;;;;;;4992598;28;20015;-70
2023/05/29 09:10:13;;;;;;;9.45;2.60;;;;;;;;;;4982465;28;20049;-70
2023/05/29 09:12:39;;;;;;;9.50;2.85;;;;;;;;;;4985586;28;20112;-68
2023/05/29 09:15:16;;;;;;;10.43;3.00;;;;;;;;;;4987590;28;20076;-69
2023/05/29 09:17:42;;;;;;;12.95;2.85;;;;;;;;;;4979257;28;20041;-65
2023/05/29 09:20:14;;;;;;;8.48;2.60;;;;;;;;;;4985134;28;20098;-68
2023/05/29 09:22:42;;;;;;;18.50;3.83;;;;;;;;;;4986194;28;20026;-70
2023/05/29 09:25:08;;;;;;;11.90;3.15;;;;;;;;;;4986952;28;20184;-68
2023/05/29 09:27:38;;;;;;;8.95;2.85;;;;;;;;;;4988401;28;20468;-64
2023/05/29 09:30:03;;;;;;;5.93;2.30;;;;;;;;;;4986912;28;20088;-66
2023/05/29 09:32:32;;;;;;;10.10;2.80;;;;;;;;;;4989327;28;20106;-70
2023/05/29 09:34:59;;;;;;;13.00;2.90;;;;;;;;;;4989608;28;20022;-66
2023/05/29 09:37:25;;;;;;;9.83;2.63;;;;;;;;;;5006481;28;20030;-68
2023/05/29 09:39:53;;;;;;;11.88;3.10;;;;;;;;;;4990290;28;20027;-70
2023/05/29 09:42:19;;;;;;;9.40;2.88;;;;;;;;;;4992348;28;20019;-68
2023/05/29 09:44:54;;;;;;;6.63;2.33;;;;;;;;;;4990728;28;20513;-66
2023/05/29 09:47:19;;;;;;;10.10;2.80;;;;;;;;;;4991515;28;20022;-70
2023/05/29 09:49:46;;;;;;;9.43;3.17;;;;;;;;;;4988838;28;20465;-67
2023/05/29 09:52:15;;;;;;;7.78;3.45;;;;;;;;;;4990469;28;20070;-69
2023/05/29 09:54:41;;;;;;;8.05;3.00;;;;;;;;;;4988563;28;20381;-68
2023/05/29 09:57:07;;;;;;;10.35;2.75;;;;;;;;;;4990561;28;20399;-68
2023/05/29 09:59:33;;;;;;;7.55;2.72;;;;;;;;;;4990610;28;20038;-67
2023/05/29 10:02:03;;;;;;;12.27;3.78;;;;;;;;;;4997372;28;20429;-67
2023/05/29 10:04:29;;;;;;;9.40;3.30;;;;;;;;;;4985325;28;20038;-69
2023/05/29 10:06:56;;;;;;;13.05;4.10;;;;;;;;;;4988862;28;20061;-69
2023/05/29 10:09:23;;;;;;;8.48;2.50;;;;;;;;;;4989505;28;20015;-67
2023/05/29 10:14:19;;;;;;;7.68;2.88;;;;;;;;;;4974315;28;20105;-69
2023/05/29 10:16:45;;;;;;;9.95;3.17;;;;;;;;;;4980259;28;20488;-69
2023/05/29 10:19:12;;;;;;;8.30;2.03;;;;;;;;;;4985659;28;20034;-70
2023/05/29 10:21:39;;;;;;;9.57;2.90;;;;;;;;;;4985265;28;20019;-70
2023/05/29 10:24:06;;;;;;;9.65;2.95;;;;;;;;;;4959484;28;20476;-68
2023/05/29 10:26:33;;;;;;;9.02;3.20;;;;;;;;;;4960069;28;20038;-67
2023/05/29 10:29:03;;;;;;;14.73;3.40;;;;;;;;;;4966710;28;20031;-69
2023/05/29 10:31:46;;;;;;;8.45;2.67;;;;;;;;;;4967075;28;20101;-68
2023/05/29 10:34:23;;;;;;;9.07;2.58;;;;;;;;;;4960853;28;20539;-70
2023/05/29 10:37:09;;;;;;;8.18;2.72;;;;;;;;;;4970985;28;20080;-68
2023/05/29 10:39:34;;;;;;;7.95;2.40;;;;;;;;;;4972567;28;20031;-66
2023/05/29 10:42:00;;;;;;;10.15;3.05;;;;;;;;;;4972717;28;20023;-69
2023/05/29 10:44:31;;;;;;;7.82;2.67;;;;;;;;;;4971535;28;20597;-69
2023/05/29 10:46:57;;;;;;;8.60;3.47;;;;;;;;;;4965977;28;20034;-69
2023/05/29 10:49:23;;;;;;;9.85;3.13;;;;;;;;;;4968566;28;20174;-71
2023/05/29 10:51:51;;;;;;;6.53;2.42;;;;;;;;;;4965717;28;20114;-73
2023/05/29 10:54:16;;;;;;;7.35;2.78;;;;;;;;;;4958435;28;20019;-70
2023/05/29 10:56:44;;;;;;;16.73;2.90;;;;;;;;;;4970865;28;20027;-71
2023/05/29 10:59:09;;;;;;;5.95;2.63;;;;;;;;;;4969681;28;20018;-72
2023/05/29 11:01:38;;;;;;;6.63;2.45;;;;;;;;;;4969026;28;20037;-71
2023/05/29 11:04:15;;;;;;;7.78;2.30;;;;;;;;;;4961650;28;20142;-70
2023/05/29 11:06:41;;;;;;;10.50;3.13;;;;;;;;;;4961629;28;20019;-72
2023/05/29 11:09:25;;;;;;;12.18;2.90;;;;;;;;;;4956378;28;20011;-69
2023/05/29 11:12:09;;;;;;;7.55;2.75;;;;;;;;;;4964172;28;20031;-71
2023/05/29 11:14:44;;;;;;;6.60;2.58;;;;;;;;;;4970537;28;20400;-69
2023/05/29 11:17:28;;;;;;;6.40;2.45;;;;;;;;;;4971050;28;20027;-71
2023/05/29 11:19:53;;;;;;;7.55;2.60;;;;;;;;;;4963492;28;20031;-71
2023/05/29 11:22:23;;;;;;;7.25;2.55;;;;;;;;;;4969457;28;20026;-69
2023/05/29 11:24:48;;;;;;;6.32;2.35;;;;;;;;;;4959905;28;20389;-70
2023/05/29 11:27:13;;;;;;;6.68;2.28;;;;;;;;;;4968136;28;20588;-71
2023/05/29 11:29:39;;;;;;;5.40;2.30;;;;;;;;;;4970584;28;20041;-71
2023/05/29 11:32:09;;;;;;;11.15;2.38;;;;;;;;;;4966040;28;20023;-72
2023/05/29 11:34:38;;;;;;;8.80;2.70;;;;;;;;;;4962856;28;20023;-71
2023/05/29 11:37:03;;;;;;;7.43;3.03;;;;;;;;;;4961725;28;20049;-69
2023/05/29 11:39:30;;;;;;;12.63;3.10;;;;;;;;;;4960240;28;20097;-70
2023/05/29 11:41:58;;;;;;;11.18;2.47;;;;;;;;;;4970878;28;20102;-69
2023/05/29 11:44:24;;;;;;;6.68;2.40;;;;;;;;;;4963548;28;20027;-70
2023/05/29 11:47:02;;;;;;;6.50;2.35;;;;;;;;;;4971136;28;20034;-70
2023/05/29 11:49:27;;;;;;;;;;;;;;;;;;4957493;28;20046;-71
2023/05/29 11:51:53;;;;;;;10.45;3.08;;;;;;;;;;4959277;28;19906;-67
2023/05/29 11:54:19;;;;;;;6.95;2.58;;;;;;;;;;4961966;28;20019;-67
2023/05/29 11:56:47;;;;;;;12.65;2.90;;;;;;;;;;4963930;28;20027;-71
2023/05/29 11:59:12;;;;;;;7.45;3.45;;;;;;;;;;4965372;28;20023;-71
2023/05/29 12:01:37;;;;;;;6.10;2.63;;;;;;;;;;4968367;28;20061;-71
2023/05/29 12:04:13;;;;;;;5.80;2.25;;;;;;;;;;4958816;28;20026;-69
2023/05/29 12:06:38;;;;;;;6.45;2.45;;;;;;;;;;4957720;28;20132;-69
2023/05/29 12:09:04;;;;;;;9.30;2.42;;;;;;;;;;4967876;28;20027;-69
2023/05/29 12:11:30;;;;;;;7.68;2.97;;;;;;;;;;4966208;28;20030;-71
2023/05/29 12:13:59;;;;;;;10.25;3.40;;;;;;;;;;4962048;28;20027;-69
2023/05/29 12:16:25;;;;;;;6.47;2.58;;;;;;;;;;4964377;28;20023;-70
2023/05/29 12:18:51;;;;;;;19.00;3.00;;;;;;;;;;4961790;28;20035;-70
2023/05/29 12:21:16;;;;;;;12.02;2.67;;;;;;;;;;4957094;28;20080;-69
2023/05/29 12:23:42;;;;;;;7.22;2.90;;;;;;;;;;4969870;28;20453;-69
2023/05/29 12:26:07;;;;;;;9.10;2.58;;;;;;;;;;4958439;28;20025;-70
2023/05/29 12:28:41;;;;;;;8.93;2.75;;;;;;;;;;4969964;28;20030;-69
2023/05/29 12:31:07;;;;;;;11.20;2.67;;;;;;;;;;4952407;28;20080;-69
2023/05/29 12:33:33;;;;;;;8.73;3.33;;;;;;;;;;4961744;28;20603;-71
2023/05/29 12:36:02;;;;;;;8.65;3.40;;;;;;;;;;4970067;28;20031;-70
2023/05/29 12:38:27;;;;;;;7.13;2.70;;;;;;;;;;4970730;28;20034;-71
2023/05/29 12:40:53;;;;;;;7.43;2.67;;;;;;;;;;4971311;28;20105;-70
2023/05/29 12:43:19;;;;;;;7.38;2.67;;;;;;;;;;4970777;28;20129;-70
2023/05/29 12:45:44;;;;;;;7.25;2.67;;;;;;;;;;4970395;28;20450;-69
2023/05/29 12:48:10;;;;;;;6.20;2.58;;;;;;;;;;4971458;28;20540;-71
2023/05/29 12:50:38;;;;;;;9.18;2.90;;;;;;;;;;4969446;28;20102;-70
2023/05/29 12:53:06;;;;;;;7.80;3.00;;;;;;;;;;4969949;28;20026;-69
2023/05/29 12:55:39;;;;;;;6.35;2.78;;;;;;;;;;4969252;28;20269;-71
2023/05/29 12:58:05;;;;;;;8.02;2.75;;;;;;;;;;4964639;28;20023;-70
2023/05/29 13:00:31;;;;;;;8.40;3.05;;;;;;;;;;4970569;28;20027;-70
2023/05/29 13:02:57;;;;;;;9.05;2.63;;;;;;;;;;4956907;28;20023;-71
2023/05/29 13:05:22;;;;;;;7.40;2.78;;;;;;;;;;4958392;28;20073;-72
2023/05/29 13:07:51;;;;;;;7.80;2.60;;;;;;;;;;4959381;28;20099;-69
2023/05/29 13:10:20;;;;;;;5.20;2.53;;;;;;;;;;4969378;28;20086;-70
2023/05/29 13:12:45;;;;;;;;;;;;;;;;;;4958790;28;20043;-70
2023/05/29 13:15:12;;;;;;;7.55;2.88;;;;;;;;;;4954326;28;20008;-70
2023/05/29 13:17:37;;;;;;;7.13;2.70;;;;;;;;;;4963904;28;20023;-70
2023/05/29 13:20:06;;;;;;;9.10;2.85;;;;;;;;;;4960699;28;20026;-68
2023/05/29 13:22:32;;;;;;;8.52;3.10;;;;;;;;;;4969351;28;20035;-71
2023/05/29 13:24:58;;;;;;;6.30;2.53;;;;;;;;;;4957733;28;20103;-71
2023/05/29 13:27:23;;;;;;;7.35;2.72;;;;;;;;;;4963966;28;20393;-71
2023/05/29 13:29:49;;;;;;;5.85;2.72;;;;;;;;;;4954893;28;20020;-70
2023/05/29 13:32:14;;;;;;;10.68;2.78;;;;;;;;;;4963406;28;20042;-70
2023/05/29 13:34:39;;;;;;;6.90;2.50;;;;;;;;;;4949395;28;20048;-69
2023/05/29 13:37:04;;;;;;;7.30;2.97;;;;;;;;;;4953967;28;20272;-70
2023/05/29 13:39:30;;;;;;;7.60;2.70;;;;;;;;;;4970269;28;20324;-72
2023/05/29 13:41:55;;;;;;;5.75;2.35;;;;;;;;;;4956853;28;20541;-70
2023/05/29 13:44:20;;;;;;;7.60;2.42;;;;;;;;;;4959409;28;20503;-69
2023/05/29 13:46:46;;;;;;;5.20;2.35;;;;;;;;;;4967405;28;20019;-68
2023/05/29 13:49:11;;;;;;;7.40;2.80;;;;;;;;;;4958905;28;20110;-66
2023/05/29 13:51:36;;;;;;;7.15;2.80;;;;;;;;;;4967338;28;20050;-71
2023/05/29 13:54:02;;;;;;;5.95;2.63;;;;;;;;;;4963535;28;20427;-67
2023/05/29 13:56:27;;;;;;;6.22;2.80;;;;;;;;;;4965671;28;20025;-71
2023/05/29 13:58:52;;;;;;;6.90;2.35;;;;;;;;;;4969915;28;20162;-70
2023/05/29 14:01:19;;;;;;;6.00;2.08;;;;;;;;;;4966231;28;20030;-71
2023/05/29 14:03:44;;;;;;;6.78;2.30;;;;;;;;;;4949342;28;20046;-68
2023/05/29 14:06:10;;;;;;;7.68;2.55;;;;;;;;;;4952933;28;20023;-69
2023/05/29 14:08:35;;;;;;;10.75;2.72;;;;;;;;;;4969296;28;20049;-71
2023/05/29 14:11:01;;;;;;;9.23;2.50;;;;;;;;;;4969568;28;20054;-68
2023/05/29 14:13:26;;;;;;;6.30;2.75;;;;;;;;;;4965668;28;20024;-70
2023/05/29 14:15:51;;;;;;;6.67;3.00;;;;;;;;;;4958190;28;20019;-69
2023/05/29 14:18:17;;;;;;;9.45;2.67;;;;;;;;;;4952438;28;20930;-69
2023/05/29 14:20:42;;;;;;;5.93;2.50;;;;;;;;;;4968444;28;20571;-71
2023/05/29 14:23:13;;;;;;;7.20;2.75;;;;;;;;;;4972348;28;20027;-70
2023/05/29 14:25:39;;;;;;;6.85;2.38;;;;;;;;;;4969002;28;20055;-70
2023/05/29 14:28:06;;;;;;;7.03;2.42;;;;;;;;;;4955043;28;20461;-72
2023/05/29 14:30:31;;;;;;;33.20;3.65;;;;;;;;;;4960019;28;20039;-69
2023/05/29 14:32:56;;;;;;;7.18;2.92;;;;;;;;;;4962877;28;20397;-70
2023/05/29 14:35:22;;;;;;;9.15;3.10;;;;;;;;;;4968202;28;20023;-70